createdAt,value
2022-10-06T00:01:12.406Z,19.2
2022-10-06T00:02:28.589Z,19.2
2022-10-06T00:03:44.536Z,19.2
2022-10-06T00:04:59.992Z,19.2
2022-10-06T00:06:16.167Z,19.2
2022-10-06T00:07:32.129Z,19.2
2022-10-06T00:08:48.305Z,19.2
2022-10-06T00:10:04.505Z,19.2
2022-10-06T00:11:20.931Z,19.2
2022-10-06T00:12:37.121Z,19.2
2022-10-06T00:13:53.302Z,19.2
2022-10-06T00:15:09.258Z,19.2
2022-10-06T00:16:25.434Z,19.2
2022-10-06T00:17:41.876Z,19.2
2022-10-06T00:18:58.066Z,19.2
2022-10-06T00:20:14.252Z,19.2
2022-10-06T00:21:29.217Z,19.2
2022-10-06T00:22:45.408Z,19.2
2022-10-06T00:24:01.828Z,19.2
2022-10-06T00:25:18.035Z,19.2
2022-10-06T00:26:34.208Z,19.2
2022-10-06T00:27:50.159Z,19.2
2022-10-06T00:29:06.605Z,19.2
2022-10-06T00:30:22.540Z,19.2
2022-10-06T00:31:38.969Z,19.2
2022-10-06T00:32:55.162Z,19.2
2022-10-06T00:34:11.099Z,19.2
2022-10-06T00:35:27.304Z,19.2
2022-10-06T00:36:43.741Z,19.2
2022-10-06T00:37:58.945Z,19.2
2022-10-06T00:39:14.870Z,19.2
2022-10-06T00:40:31.326Z,19.2
2022-10-06T00:41:47.513Z,19.2
2022-10-06T00:43:03.701Z,19.2
2022-10-06T00:44:19.879Z,19.2
2022-10-06T00:45:35.822Z,19.2
2022-10-06T00:46:52.265Z,19.2
2022-10-06T00:48:08.455Z,19.2
2022-10-06T00:49:24.639Z,19.2
2022-10-06T00:50:40.826Z,19.2
2022-10-06T00:51:57.014Z,19.2
2022-10-06T00:53:12.955Z,19.2
2022-10-06T00:54:28.417Z,19.2
2022-10-06T00:55:44.354Z,19.2
2022-10-06T00:57:00.542Z,19.2
2022-10-06T00:58:16.973Z,19.2
2022-10-06T00:59:32.928Z,19.2
2022-10-06T01:00:49.101Z,19.2
2022-10-06T01:02:05.288Z,19.2
2022-10-06T01:03:21.486Z,19.2
2022-10-06T01:04:37.930Z,19.2
2022-10-06T01:05:53.862Z,19.2
2022-10-06T01:07:10.308Z,19.2
2022-10-06T01:08:26.242Z,19.2
2022-10-06T01:09:42.685Z,19.2
2022-10-06T01:10:57.625Z,19.2
2022-10-06T01:12:14.068Z,19.2
2022-10-06T01:13:30.266Z,19.2
2022-10-06T01:14:46.444Z,19.2
2022-10-06T01:16:02.640Z,19.2
2022-10-06T01:17:18.822Z,19.2
2022-10-06T01:18:34.767Z,19.2
2022-10-06T01:19:50.960Z,19.2
2022-10-06T01:21:07.409Z,19.2
2022-10-06T01:22:23.596Z,19.2
2022-10-06T01:23:39.785Z,19.2
2022-10-06T01:24:55.704Z,19.2
2022-10-06T01:26:11.898Z,19.2
2022-10-06T01:27:27.364Z,19.2
2022-10-06T01:28:43.542Z,19.2
2022-10-06T01:29:59.739Z,19.2
2022-10-06T01:31:15.927Z,19.2
2022-10-06T01:32:31.856Z,19.2
2022-10-06T01:33:48.313Z,19.2
2022-10-06T01:35:04.496Z,19.2
2022-10-06T01:36:20.673Z,19.2
2022-10-06T01:37:36.881Z,19.2
2022-10-06T01:38:53.058Z,19.2
2022-10-06T01:40:09.250Z,19.2
2022-10-06T01:41:25.177Z,19.2
2022-10-06T01:42:41.623Z,19.2
2022-10-06T01:43:56.827Z,19.2
2022-10-06T01:45:13.022Z,19.2
2022-10-06T01:46:29.213Z,19.2
2022-10-06T01:47:45.390Z,19.2
2022-10-06T01:49:01.599Z,19.2
2022-10-06T01:50:17.788Z,19.2
2022-10-06T01:51:33.967Z,19.2
2022-10-06T01:52:50.156Z,19.2
2022-10-06T01:54:06.342Z,19.2
2022-10-06T01:55:22.542Z,19.2
2022-10-06T01:56:38.719Z,19.2
2022-10-06T01:57:54.901Z,19.2
2022-10-06T01:59:11.101Z,19.2
2022-10-06T02:00:26.314Z,19.2
2022-10-06T02:01:42.230Z,19.2
2022-10-06T02:02:58.412Z,19.2
2022-10-06T02:04:14.620Z,19.2
2022-10-06T02:05:31.059Z,19.2
2022-10-06T02:06:46.989Z,19.2
2022-10-06T02:08:03.448Z,19.2
2022-10-06T02:09:19.363Z,19.2
2022-10-06T02:10:35.825Z,19.2
2022-10-06T02:11:52.005Z,19.2
2022-10-06T02:13:08.186Z,19.2
2022-10-06T02:14:24.377Z,19.2
2022-10-06T02:15:40.581Z,19.2
2022-10-06T02:16:55.787Z,19.2
2022-10-06T02:18:11.970Z,19.2
2022-10-06T02:19:28.167Z,19.2
2022-10-06T02:20:44.340Z,19.2
2022-10-06T02:22:00.267Z,19.2
2022-10-06T02:23:16.450Z,19.2
2022-10-06T02:24:32.928Z,19.2
2022-10-06T02:25:49.102Z,19.2
2022-10-06T02:27:05.287Z,19.2
2022-10-06T02:28:21.484Z,19.2
2022-10-06T02:29:37.666Z,19.2
2022-10-06T02:30:53.861Z,19.2
2022-10-06T02:32:09.781Z,19.2
2022-10-06T02:33:25.248Z,19.2
2022-10-06T02:34:41.163Z,19.2
2022-10-06T02:35:57.639Z,19.2
2022-10-06T02:37:13.545Z,19.2
2022-10-06T02:38:30.003Z,19.2
2022-10-06T02:39:46.201Z,19.2
2022-10-06T02:41:02.382Z,19.2
2022-10-06T02:42:18.310Z,19.2
2022-10-06T02:43:34.764Z,19.2
2022-10-06T02:44:50.959Z,19.2
2022-10-06T02:46:07.151Z,19.2
2022-10-06T02:47:23.323Z,19.2
2022-10-06T02:48:39.530Z,19.2
2022-10-06T02:49:54.728Z,19.2
2022-10-06T02:51:10.923Z,19.2
2022-10-06T02:52:27.114Z,19.2
2022-10-06T02:53:43.295Z,19.2
2022-10-06T02:54:59.476Z,19.2
2022-10-06T02:56:15.674Z,19.2
2022-10-06T02:57:30.886Z,19.2
2022-10-06T02:58:47.072Z,19.2
2022-10-06T03:00:03.259Z,19.2
2022-10-06T03:01:19.443Z,19.2
2022-10-06T03:02:35.369Z,19.2
2022-10-06T03:03:51.828Z,19.2
2022-10-06T03:05:08.018Z,19.2
2022-10-06T03:06:23.918Z,19.2
2022-10-06T03:07:40.393Z,19.2
2022-10-06T03:08:56.590Z,19.2
2022-10-06T03:10:12.488Z,19.2
2022-10-06T03:11:28.967Z,19.2
2022-10-06T03:12:44.880Z,19.2
2022-10-06T03:14:00.362Z,19.2
2022-10-06T03:15:16.550Z,19.2
2022-10-06T03:16:32.461Z,19.2
2022-10-06T03:17:48.633Z,19.2
2022-10-06T03:19:04.823Z,19.2
2022-10-06T03:20:21.290Z,19.2
2022-10-06T03:21:37.202Z,19.2
2022-10-06T03:22:53.673Z,19.2
2022-10-06T03:24:09.863Z,19.2
2022-10-06T03:25:26.063Z,19.2
2022-10-06T03:26:42.246Z,19.2
2022-10-06T03:27:58.438Z,19.2
2022-10-06T03:29:14.624Z,19.2
2022-10-06T03:30:29.826Z,19.2
2022-10-06T03:31:46.007Z,19.2
2022-10-06T03:33:02.214Z,19.2
2022-10-06T03:34:18.398Z,19.2
2022-10-06T03:35:34.594Z,19.2
2022-10-06T03:36:50.767Z,19.2
2022-10-06T03:38:06.968Z,19.2
2022-10-06T03:39:23.155Z,19.2
2022-10-06T03:40:39.058Z,19.2
2022-10-06T03:41:55.237Z,19.2
2022-10-06T03:43:11.709Z,19.2
2022-10-06T03:44:27.914Z,19.2
2022-10-06T03:45:44.088Z,19.2
2022-10-06T03:46:59.308Z,19.2
2022-10-06T03:48:15.208Z,19.2
2022-10-06T03:49:31.685Z,19.2
2022-10-06T03:50:47.862Z,19.2
2022-10-06T03:52:04.050Z,19.2
2022-10-06T03:53:20.245Z,19.2
2022-10-06T03:54:36.440Z,19.2
2022-10-06T03:55:52.339Z,19.2
2022-10-06T03:57:08.526Z,19.2
2022-10-06T03:58:25.008Z,19.2
2022-10-06T03:59:41.186Z,19.2
2022-10-06T04:00:57.375Z,19.2
2022-10-06T04:02:13.575Z,19.2
2022-10-06T04:03:28.765Z,19.2
2022-10-06T04:04:44.960Z,19.2
2022-10-06T04:06:00.856Z,19.2
2022-10-06T04:07:17.346Z,19.2
2022-10-06T04:08:33.523Z,19.2
2022-10-06T04:09:49.719Z,19.2
2022-10-06T04:11:05.623Z,19.2
2022-10-06T04:12:22.098Z,19.2
2022-10-06T04:13:38.287Z,19.2
2022-10-06T04:14:54.483Z,19.2
2022-10-06T04:16:10.662Z,19.2
2022-10-06T04:17:26.847Z,19.2
2022-10-06T04:18:42.741Z,19.2
2022-10-06T04:19:58.239Z,19.2
2022-10-06T04:21:14.445Z,19.2
2022-10-06T04:22:30.332Z,19.2
2022-10-06T04:23:46.821Z,19.2
2022-10-06T04:25:02.996Z,19.2
2022-10-06T04:26:19.186Z,19.2
2022-10-06T04:27:35.390Z,19.2
2022-10-06T04:28:51.579Z,19.2
2022-10-06T04:30:07.765Z,19.2
2022-10-06T04:31:23.943Z,19.2
2022-10-06T04:32:40.138Z,19.2
2022-10-06T04:33:56.023Z,19.2
2022-10-06T04:35:12.230Z,19.2
2022-10-06T04:36:27.722Z,19.2
2022-10-06T04:37:43.907Z,19.2
2022-10-06T04:38:59.815Z,19.2
2022-10-06T04:40:16.283Z,19.2
2022-10-06T04:41:32.182Z,19.2
2022-10-06T04:42:48.379Z,19.2
2022-10-06T04:44:04.847Z,19.2
2022-10-06T04:45:21.048Z,19.2
2022-10-06T04:46:36.946Z,19.2
2022-10-06T04:47:53.122Z,19.2
2022-10-06T04:49:09.322Z,19.2
2022-10-06T04:50:25.498Z,19.2
2022-10-06T04:51:41.994Z,19.2
2022-10-06T04:52:57.188Z,19.2
2022-10-06T04:54:13.379Z,19.2
2022-10-06T04:55:29.282Z,19.2
2022-10-06T04:56:45.759Z,19.2
2022-10-06T04:58:01.959Z,19.2
2022-10-06T04:59:18.151Z,19.2
2022-10-06T05:00:34.338Z,19.3
2022-10-06T05:01:50.208Z,19.2
2022-10-06T05:03:06.704Z,19.2
2022-10-06T05:04:22.600Z,19.2
2022-10-06T05:05:39.093Z,19.2
2022-10-06T05:06:55.281Z,19.2
2022-10-06T05:08:11.461Z,19.2
2022-10-06T05:09:26.673Z,19.2
2022-10-06T05:10:42.864Z,19.2
2022-10-06T05:11:58.747Z,19.2
2022-10-06T05:13:15.243Z,19.2
2022-10-06T05:14:31.426Z,19.2
2022-10-06T05:15:47.612Z,19.2
2022-10-06T05:17:03.805Z,19.3
2022-10-06T05:18:19.986Z,19.3
2022-10-06T05:19:36.172Z,19.3
2022-10-06T05:20:52.365Z,19.3
2022-10-06T05:22:08.550Z,19.3
2022-10-06T05:23:24.751Z,19.3
2022-10-06T05:24:40.638Z,19.3
2022-10-06T05:25:56.136Z,19.3
2022-10-06T05:27:12.019Z,19.2
2022-10-06T05:28:28.512Z,19.2
2022-10-06T05:29:44.698Z,19.3
2022-10-06T05:31:00.903Z,19.3
2022-10-06T05:32:17.096Z,19.3
2022-10-06T05:33:33.272Z,19.3
2022-10-06T05:34:49.168Z,19.3
2022-10-06T05:36:05.357Z,19.3
2022-10-06T05:37:21.833Z,19.3
2022-10-06T05:38:38.040Z,19.3
2022-10-06T05:39:54.214Z,19.3
2022-10-06T05:41:10.409Z,19.3
2022-10-06T05:42:25.298Z,19.3
2022-10-06T05:43:41.796Z,19.3
2022-10-06T05:44:57.997Z,19.3
2022-10-06T05:46:14.189Z,19.3
2022-10-06T05:47:30.376Z,19.3
2022-10-06T05:48:46.566Z,19.3
2022-10-06T05:50:02.749Z,19.3
2022-10-06T05:51:18.626Z,19.3
2022-10-06T05:52:34.814Z,19.3
2022-10-06T05:53:51.315Z,19.3
2022-10-06T05:55:07.510Z,19.3
2022-10-06T05:56:23.684Z,19.3
2022-10-06T05:57:39.839Z,19.3
2022-10-06T05:58:55.088Z,19.3
2022-10-06T06:00:11.283Z,19.3
2022-10-06T06:01:27.458Z,19.3
2022-10-06T06:02:43.600Z,19.3
2022-10-06T06:03:59.783Z,19.3
2022-10-06T06:05:15.972Z,19.3
2022-10-06T06:06:32.218Z,19.3
2022-10-06T06:07:48.406Z,19.3
2022-10-06T06:09:04.591Z,19.3
2022-10-06T06:10:20.784Z,19.3
2022-10-06T06:11:36.977Z,19.3
2022-10-06T06:12:53.105Z,19.3
2022-10-06T06:14:09.355Z,19.3
2022-10-06T06:15:24.547Z,19.3
2022-10-06T06:16:40.692Z,19.3
2022-10-06T06:17:56.879Z,19.3
2022-10-06T06:19:13.105Z,19.3
2022-10-06T06:20:29.299Z,19.4
2022-10-06T06:21:45.490Z,19.4
2022-10-06T06:23:01.676Z,19.4
2022-10-06T06:24:17.862Z,19.4
2022-10-06T06:25:33.999Z,19.4
2022-10-06T06:26:50.238Z,19.4
2022-10-06T06:28:06.418Z,19.4
2022-10-06T06:29:22.623Z,19.4
2022-10-06T06:30:38.801Z,19.4
2022-10-06T06:31:54.000Z,19.4
2022-10-06T06:33:10.130Z,19.4
2022-10-06T06:34:26.376Z,19.4
2022-10-06T06:35:42.574Z,19.4
2022-10-06T06:36:58.750Z,19.4
2022-10-06T06:38:14.935Z,19.4
2022-10-06T06:39:31.065Z,19.4
2022-10-06T06:40:47.317Z,19.4
2022-10-06T06:42:03.435Z,19.4
2022-10-06T06:43:19.635Z,19.4
2022-10-06T06:44:35.870Z,19.4
2022-10-06T06:45:52.055Z,19.4
2022-10-06T06:47:08.246Z,19.4
2022-10-06T06:48:23.451Z,19.4
2022-10-06T06:49:39.571Z,19.4
2022-10-06T06:50:55.764Z,19.4
2022-10-06T06:52:12.009Z,19.4
2022-10-06T06:53:28.201Z,19.4
2022-10-06T06:54:44.322Z,19.4
2022-10-06T06:56:00.571Z,19.4
2022-10-06T06:57:16.708Z,19.4
2022-10-06T06:58:32.888Z,19.4
2022-10-06T06:59:49.144Z,19.5
2022-10-06T07:01:05.336Z,19.5
2022-10-06T07:02:21.456Z,19.5
2022-10-06T07:03:37.631Z,19.5
2022-10-06T07:04:52.914Z,19.4
2022-10-06T07:06:09.025Z,19.4
2022-10-06T07:07:25.217Z,19.5
2022-10-06T07:08:41.392Z,19.5
2022-10-06T07:09:57.652Z,19.5
2022-10-06T07:11:13.838Z,19.5
2022-10-06T07:12:28.989Z,19.4
2022-10-06T07:13:45.000Z,19.5
2022-10-06T07:15:01.420Z,19.4
2022-10-06T07:16:17.610Z,19.5
2022-10-06T07:17:33.730Z,19.4
2022-10-06T07:18:49.000Z,19.5
2022-10-06T07:20:06.178Z,19.4
2022-10-06T07:21:22.351Z,19.4
2022-10-06T07:22:38.476Z,19.4
2022-10-06T07:23:54.726Z,19.4
2022-10-06T07:25:10.918Z,19.5
2022-10-06T07:26:27.106Z,19.5
2022-10-06T07:27:43.233Z,19.5
2022-10-06T07:30:14.623Z,19.5
2022-10-06T07:31:30.866Z,19.5
2022-10-06T07:32:46.997Z,19.5
2022-10-06T07:34:03.247Z,19.5
2022-10-06T07:35:19.433Z,19.5
2022-10-06T07:36:35.635Z,19.5
2022-10-06T07:37:51.808Z,19.5
2022-10-06T07:39:08.005Z,19.5
2022-10-06T07:40:24.181Z,19.5
2022-10-06T07:41:40.367Z,19.5
2022-10-06T07:42:56.559Z,19.5
2022-10-06T07:44:12.750Z,19.5
2022-10-06T07:45:27.945Z,19.5
2022-10-06T07:46:44.135Z,19.5
2022-10-06T07:48:00.335Z,19.5
2022-10-06T07:49:16.450Z,19.6
2022-10-06T07:50:32.699Z,19.6
2022-10-06T07:51:48.898Z,19.6
2022-10-06T07:53:05.075Z,19.6
2022-10-06T07:54:21.266Z,19.6
2022-10-06T07:55:37.370Z,19.6
2022-10-06T07:56:53.644Z,19.7
2022-10-06T07:58:09.816Z,19.7
2022-10-06T07:59:25.944Z,19.7
2022-10-06T08:00:42.210Z,19.7
2022-10-06T08:01:57.412Z,19.7
2022-10-06T08:03:13.591Z,19.7
2022-10-06T08:04:29.774Z,19.7
2022-10-06T08:05:45.968Z,19.6
2022-10-06T08:07:02.072Z,19.7
2022-10-06T08:08:18.344Z,19.6
2022-10-06T08:09:34.529Z,19.7
2022-10-06T08:10:50.724Z,19.7
2022-10-06T08:12:06.907Z,19.7
2022-10-06T08:13:23.090Z,19.7
2022-10-06T08:14:39.207Z,19.7
2022-10-06T08:15:55.472Z,19.7
2022-10-06T08:17:11.654Z,19.7
2022-10-06T08:18:26.766Z,19.7
2022-10-06T08:19:43.043Z,19.7
2022-10-06T08:20:59.226Z,19.7
2022-10-06T08:22:15.421Z,19.7
2022-10-06T08:23:31.602Z,19.7
2022-10-06T08:24:47.798Z,19.7
2022-10-06T08:26:03.970Z,19.7
2022-10-06T08:27:20.085Z,19.7
2022-10-06T08:28:36.354Z,19.7
2022-10-06T08:29:52.453Z,19.7
2022-10-06T08:31:08.637Z,19.7
2022-10-06T08:32:24.923Z,19.7
2022-10-06T08:33:41.016Z,19.7
2022-10-06T08:34:56.213Z,19.7
2022-10-06T08:36:12.404Z,19.7
2022-10-06T08:37:28.595Z,19.7
2022-10-06T08:38:44.860Z,19.7
2022-10-06T08:40:00.974Z,19.7
2022-10-06T08:41:17.246Z,19.7
2022-10-06T08:42:33.424Z,19.7
2022-10-06T08:43:49.524Z,19.8
2022-10-06T08:45:05.713Z,19.8
2022-10-06T08:46:22.002Z,19.8
2022-10-06T08:47:38.172Z,19.8
2022-10-06T08:48:54.288Z,19.8
2022-10-06T08:50:10.556Z,19.8
2022-10-06T08:51:25.758Z,19.8
2022-10-06T08:52:41.869Z,19.8
2022-10-06T08:53:58.126Z,19.8
2022-10-06T08:55:14.323Z,19.8
2022-10-06T08:56:30.510Z,19.8
2022-10-06T08:57:46.694Z,19.8
2022-10-06T08:59:02.880Z,19.8
2022-10-06T09:00:18.975Z,19.8
2022-10-06T09:01:35.257Z,19.8
2022-10-06T09:02:51.436Z,19.8
2022-10-06T09:04:07.636Z,19.8
2022-10-06T09:05:23.730Z,19.9
2022-10-06T09:06:39.999Z,19.8
2022-10-06T09:07:55.125Z,19.8
2022-10-06T09:09:11.403Z,19.8
2022-10-06T09:10:27.592Z,19.9
2022-10-06T09:11:43.681Z,19.8
2022-10-06T09:12:59.869Z,19.8
2022-10-06T09:14:16.151Z,19.8
2022-10-06T09:15:32.234Z,19.9
2022-10-06T09:16:48.528Z,19.9
2022-10-06T09:18:04.615Z,19.9
2022-10-06T09:19:20.905Z,19.9
2022-10-06T09:25:40.850Z,19.9
2022-10-06T09:26:57.035Z,19.9
2022-10-06T09:28:13.226Z,19.9
2022-10-06T09:32:01.684Z,19.9
2022-10-06T09:33:17.964Z,20
2022-10-06T09:34:34.154Z,20
2022-10-06T09:37:06.535Z,20.1
2022-10-06T09:38:22.719Z,20.1
2022-10-06T09:39:38.911Z,20.1
2022-10-06T09:40:54.107Z,20.1
2022-10-06T09:42:10.311Z,20.1
2022-10-06T09:43:26.389Z,20.1
2022-10-06T09:44:42.677Z,20.2
2022-10-06T09:45:58.766Z,20.2
2022-10-06T09:47:14.950Z,20.2
2022-10-06T09:49:47.422Z,20.2
2022-10-06T09:51:03.619Z,20.3
2022-10-06T09:53:35.887Z,20.2
2022-10-06T09:54:52.177Z,20.3
2022-10-06T09:56:08.365Z,20.3
2022-10-06T09:57:23.569Z,20.4
2022-10-06T09:58:39.749Z,20.4
2022-10-06T09:59:55.937Z,20.4
2022-10-06T10:01:12.019Z,20.5
2022-10-06T10:02:28.320Z,20.5
2022-10-06T10:03:44.492Z,20.5
2022-10-06T10:05:00.597Z,20.5
2022-10-06T10:06:16.884Z,20.6
2022-10-06T10:07:33.066Z,20.6
2022-10-06T10:08:49.155Z,20.5
2022-10-06T10:10:05.327Z,20.5
2022-10-06T10:11:21.620Z,20.5
2022-10-06T10:12:37.707Z,20.5
2022-10-06T10:13:53.010Z,20.5
2022-10-06T10:15:09.194Z,20.4
2022-10-06T10:16:25.407Z,20.3
2022-10-06T10:17:41.465Z,20.5
2022-10-06T10:18:57.760Z,20.5
2022-10-06T10:20:13.853Z,20.4
2022-10-06T10:21:30.149Z,20.4
2022-10-06T10:22:46.334Z,20.6
2022-10-06T10:24:02.410Z,20.5
2022-10-06T10:25:18.711Z,20.5
2022-10-06T10:26:34.884Z,20.4
2022-10-06T10:27:51.085Z,20.6
2022-10-06T10:29:07.255Z,20.7
2022-10-06T10:30:22.478Z,20.7
2022-10-06T10:31:38.660Z,20.6
2022-10-06T10:32:54.843Z,20.7
2022-10-06T10:34:11.040Z,21
2022-10-06T10:35:27.226Z,21.2
2022-10-06T10:36:43.294Z,21.3
2022-10-06T10:37:59.484Z,21.4
2022-10-06T10:39:15.674Z,21.4
2022-10-06T10:40:31.963Z,21.3
2022-10-06T10:41:48.152Z,21.5
2022-10-06T10:43:04.224Z,21.6
2022-10-06T10:44:20.537Z,21.7
2022-10-06T10:45:36.708Z,21.8
2022-10-06T10:46:51.912Z,21.8
2022-10-06T10:48:08.111Z,21.8
2022-10-06T10:49:24.297Z,21.8
2022-10-06T10:50:40.380Z,21.9
2022-10-06T10:51:56.672Z,21.9
2022-10-06T10:53:12.849Z,21.9
2022-10-06T10:54:28.939Z,21.7
2022-10-06T10:55:45.120Z,21.8
2022-10-06T10:57:01.430Z,22
2022-10-06T10:58:17.504Z,22.1
2022-10-06T10:59:33.787Z,22.2
2022-10-06T11:00:49.982Z,22
2022-10-06T11:02:06.165Z,21.9
2022-10-06T11:03:21.363Z,22.1
2022-10-06T11:04:37.555Z,22.2
2022-10-06T11:05:53.749Z,22.3
2022-10-06T11:07:09.945Z,22.4
2022-10-06T11:08:26.004Z,22.5
2022-10-06T11:09:42.191Z,22.5
2022-10-06T11:10:58.492Z,22.4
2022-10-06T11:12:14.578Z,22.4
2022-10-06T11:13:30.880Z,22.5
2022-10-06T11:14:47.062Z,22.6
2022-10-06T11:16:03.249Z,22.6
2022-10-06T11:17:19.445Z,22.6
2022-10-06T11:18:35.506Z,22.7
2022-10-06T11:19:50.824Z,22.7
2022-10-06T11:21:06.905Z,22.7
2022-10-06T11:22:23.207Z,22.5
2022-10-06T11:23:39.382Z,22.5
2022-10-06T11:24:55.465Z,22.6
2022-10-06T11:26:11.766Z,22.7
2022-10-06T11:27:26.973Z,22.8
2022-10-06T11:28:43.036Z,22.4
2022-10-06T11:29:59.233Z,22.2
2022-10-06T11:31:15.416Z,22.5
2022-10-06T11:32:31.603Z,22.7
2022-10-06T11:33:47.905Z,22.8
2022-10-06T11:35:03.971Z,22.9
2022-10-06T11:36:20.289Z,22.9
2022-10-06T11:37:36.474Z,23
2022-10-06T11:38:52.659Z,23
2022-10-06T11:40:08.732Z,23.1
2022-10-06T11:41:25.036Z,23.2
2022-10-06T11:42:41.223Z,23.2
2022-10-06T11:43:56.293Z,23.1
2022-10-06T11:45:12.600Z,23.2
2022-10-06T11:46:28.807Z,23.2
2022-10-06T11:47:44.991Z,22.9
2022-10-06T11:49:01.164Z,23
2022-10-06T11:50:17.354Z,23
2022-10-06T11:51:33.557Z,23.2
2022-10-06T11:52:49.615Z,23.3
2022-10-06T11:54:05.920Z,23.3
2022-10-06T11:55:21.974Z,23.4
2022-10-06T11:56:38.295Z,23
2022-10-06T11:57:54.487Z,22.6
2022-10-06T11:59:10.663Z,23
2022-10-06T12:00:25.883Z,22.7
2022-10-06T12:01:41.947Z,23
2022-10-06T12:02:58.243Z,23.3
2022-10-06T12:04:14.428Z,23.5
2022-10-06T12:05:30.630Z,23.4
2022-10-06T12:06:46.809Z,23.3
2022-10-06T12:08:02.991Z,22.9
2022-10-06T12:09:19.188Z,22.6
2022-10-06T12:10:35.256Z,23
2022-10-06T12:11:51.558Z,22.9
2022-10-06T12:13:07.741Z,23.4
2022-10-06T12:14:23.930Z,23.4
2022-10-06T12:15:39.985Z,23.7
2022-10-06T12:16:55.330Z,23.9
2022-10-06T12:18:11.375Z,23.9
2022-10-06T12:19:27.699Z,23.7
2022-10-06T12:20:43.896Z,24
2022-10-06T12:22:00.076Z,24.2
2022-10-06T12:23:16.267Z,24.2
2022-10-06T12:24:32.457Z,23.9
2022-10-06T12:25:48.630Z,23.5
2022-10-06T12:27:04.696Z,23.7
2022-10-06T12:28:21.019Z,24
2022-10-06T12:29:37.195Z,24.1
2022-10-06T12:30:53.249Z,24.4
2022-10-06T12:32:09.577Z,24.6
2022-10-06T12:33:24.787Z,24.7
2022-10-06T12:34:40.964Z,24.8
2022-10-06T12:35:57.146Z,24.9
2022-10-06T12:37:13.211Z,25
2022-10-06T12:38:29.537Z,24.6
2022-10-06T12:39:45.707Z,23.9
2022-10-06T12:41:01.770Z,24.3
2022-10-06T12:42:18.082Z,24.1
2022-10-06T12:43:34.284Z,23.7
2022-10-06T12:44:50.341Z,23.5
2022-10-06T12:46:06.655Z,24.1
2022-10-06T12:47:22.850Z,24
2022-10-06T12:48:38.901Z,23.8
2022-10-06T12:49:54.088Z,23.6
2022-10-06T12:51:10.410Z,23.8
2022-10-06T12:52:26.599Z,24.3
2022-10-06T12:53:42.783Z,24.6
2022-10-06T12:54:58.976Z,24.9
2022-10-06T12:56:15.178Z,24.9
2022-10-06T12:57:31.351Z,24.8
2022-10-06T12:58:47.537Z,24.4
2022-10-06T13:00:03.722Z,23.8
2022-10-06T13:01:19.769Z,23.5
2022-10-06T13:02:36.109Z,23.2
2022-10-06T13:03:52.295Z,23
2022-10-06T13:05:08.332Z,22.9
2022-10-06T13:06:23.547Z,22.9
2022-10-06T13:07:39.875Z,22.8
2022-10-06T13:08:55.926Z,22.7
2022-10-06T13:10:12.240Z,22.6
2022-10-06T13:11:28.288Z,22.6
2022-10-06T13:12:44.625Z,22.5
2022-10-06T13:14:00.798Z,22.5
2022-10-06T13:15:16.855Z,22.4
2022-10-06T13:16:33.173Z,22.4
2022-10-06T13:17:49.234Z,22.4
2022-10-06T13:19:05.422Z,22.3
2022-10-06T13:20:21.600Z,22.3
2022-10-06T13:21:37.923Z,22.2
2022-10-06T13:22:53.134Z,22.2
2022-10-06T13:24:09.174Z,22.2
2022-10-06T13:25:25.499Z,22.1
2022-10-06T13:26:41.691Z,22.1
2022-10-06T13:27:57.730Z,22.1
2022-10-06T13:29:13.919Z,22.1
2022-10-06T13:30:30.258Z,22
2022-10-06T13:31:46.307Z,22
2022-10-06T13:33:02.623Z,22
2022-10-06T13:34:18.667Z,22
2022-10-06T13:35:35.009Z,22
2022-10-06T13:36:51.048Z,21.9
2022-10-06T13:38:07.375Z,21.9
2022-10-06T13:39:22.578Z,21.9
2022-10-06T13:40:38.778Z,21.9
2022-10-06T13:41:54.825Z,21.8
2022-10-06T13:43:11.148Z,21.8
2022-10-06T13:44:27.330Z,21.8
2022-10-06T13:45:43.525Z,21.8
2022-10-06T13:46:59.706Z,21.8
2022-10-06T13:48:15.894Z,21.8
2022-10-06T13:49:31.944Z,21.7
2022-10-06T13:50:48.279Z,21.7
2022-10-06T13:52:04.466Z,21.7
2022-10-06T13:53:20.655Z,21.7
2022-10-06T13:54:36.844Z,21.7
2022-10-06T13:55:52.039Z,21.6
2022-10-06T13:57:08.217Z,21.6
2022-10-06T13:58:24.421Z,21.6
2022-10-06T13:59:40.443Z,21.6
2022-10-06T14:00:56.786Z,21.6
2022-10-06T14:02:12.974Z,21.6
2022-10-06T14:03:29.170Z,21.5
2022-10-06T14:04:45.347Z,21.6
2022-10-06T14:06:01.378Z,21.5
2022-10-06T14:07:17.722Z,21.5
2022-10-06T14:08:33.914Z,21.5
2022-10-06T14:09:50.099Z,21.5
2022-10-06T14:11:06.280Z,21.5
2022-10-06T14:12:21.490Z,21.5
2022-10-06T14:13:37.519Z,21.4
2022-10-06T14:14:53.871Z,21.4
2022-10-06T14:16:09.000Z,21.4
2022-10-06T14:17:26.232Z,21.4
2022-10-06T14:18:42.423Z,21.4
2022-10-06T14:19:58.608Z,21.4
2022-10-06T14:21:14.810Z,21.4
2022-10-06T14:22:30.990Z,21.4
2022-10-06T14:23:47.182Z,21.3
2022-10-06T14:25:03.364Z,21.3
2022-10-06T14:26:19.561Z,21.3
2022-10-06T14:27:35.591Z,21.3
2022-10-06T14:28:50.935Z,21.3
2022-10-06T14:30:07.130Z,21.3
2022-10-06T14:31:23.321Z,21.3
2022-10-06T14:32:39.341Z,21.3
2022-10-06T14:33:55.681Z,21.3
2022-10-06T14:35:11.875Z,21.2
2022-10-06T14:36:28.068Z,21.2
2022-10-06T14:37:44.251Z,21.2
2022-10-06T14:39:00.436Z,21.2
2022-10-06T14:40:16.629Z,21.2
2022-10-06T14:41:32.820Z,21.2
2022-10-06T14:42:49.003Z,21.2
2022-10-06T14:44:05.186Z,21.2
2022-10-06T14:45:20.383Z,21.2
2022-10-06T14:46:36.576Z,21.1
2022-10-06T14:47:52.771Z,21.1
2022-10-06T14:49:08.953Z,21.1
2022-10-06T14:50:25.139Z,21.1
2022-10-06T14:51:41.329Z,21.1
2022-10-06T14:52:57.522Z,21.1
2022-10-06T14:54:13.709Z,21.1
2022-10-06T14:55:29.891Z,21.1
2022-10-06T14:56:45.924Z,21.1
2022-10-06T14:58:02.105Z,21.1
2022-10-06T14:59:18.446Z,21.1
2022-10-06T15:00:34.649Z,21.1
2022-10-06T15:01:49.846Z,21.1
2022-10-06T15:03:05.868Z,21
2022-10-06T15:04:22.053Z,21
2022-10-06T15:05:38.240Z,21
2022-10-06T15:06:54.583Z,21
2022-10-06T15:08:10.777Z,21
2022-10-06T15:09:26.817Z,21
2022-10-06T15:10:42.982Z,21
2022-10-06T15:11:59.347Z,21
2022-10-06T15:13:15.524Z,21
2022-10-06T15:14:31.716Z,21
2022-10-06T15:15:47.901Z,20.9
2022-10-06T15:17:04.100Z,20.9
2022-10-06T15:18:19.131Z,20.9
2022-10-06T15:19:35.311Z,20.9
2022-10-06T15:20:51.497Z,20.9
2022-10-06T15:22:07.699Z,20.9
2022-10-06T15:23:23.871Z,20.9
2022-10-06T15:24:40.235Z,20.9
2022-10-06T15:25:56.418Z,20.9
2022-10-06T15:27:12.618Z,20.8
2022-10-06T15:28:28.621Z,20.8
2022-10-06T15:29:44.992Z,20.8
2022-10-06T15:31:01.163Z,20.8
2022-10-06T15:32:17.365Z,20.8
2022-10-06T15:33:33.553Z,20.8
2022-10-06T15:34:48.759Z,20.8
2022-10-06T15:36:04.761Z,20.8
2022-10-06T15:37:21.133Z,20.8
2022-10-06T15:38:37.302Z,20.7
2022-10-06T15:39:53.497Z,20.7
2022-10-06T15:41:09.508Z,20.7
2022-10-06T15:42:24.719Z,20.7
2022-10-06T15:43:40.901Z,20.7
2022-10-06T15:44:57.267Z,20.7
2022-10-06T15:46:13.286Z,20.7
2022-10-06T15:47:29.640Z,20.7
2022-10-06T15:48:45.655Z,20.7
2022-10-06T15:50:02.023Z,20.7
2022-10-06T15:51:18.043Z,20.7
2022-10-06T15:52:34.397Z,20.7
2022-10-06T15:53:50.593Z,20.7
2022-10-06T15:55:06.770Z,20.6
2022-10-06T15:56:22.973Z,20.6
2022-10-06T15:57:39.144Z,20.6
2022-10-06T15:58:54.184Z,20.6
2022-10-06T16:00:10.540Z,20.6
2022-10-06T16:01:26.733Z,20.6
2022-10-06T16:02:42.917Z,20.6
2022-10-06T16:03:59.106Z,20.6
2022-10-06T16:05:15.302Z,20.6
2022-10-06T16:06:31.322Z,20.5
2022-10-06T16:07:47.686Z,20.5
2022-10-06T16:09:03.697Z,20.5
2022-10-06T16:10:20.054Z,20.5
2022-10-06T16:11:36.250Z,20.5
2022-10-06T16:12:52.440Z,20.5
2022-10-06T16:14:08.456Z,20.5
2022-10-06T16:15:23.830Z,20.5
2022-10-06T16:16:39.831Z,20.5
2022-10-06T16:17:56.202Z,20.5
2022-10-06T16:19:12.213Z,20.5
2022-10-06T16:20:28.590Z,20.4
2022-10-06T16:21:44.588Z,20.4
2022-10-06T16:23:00.960Z,20.4
2022-10-06T16:24:17.156Z,20.4
2022-10-06T16:25:33.334Z,20.4
2022-10-06T16:26:49.523Z,20.4
2022-10-06T16:28:05.727Z,20.4
2022-10-06T16:29:21.725Z,20.4
2022-10-06T16:30:37.908Z,20.4
2022-10-06T16:31:53.308Z,20.4
2022-10-06T16:33:09.485Z,20.3
2022-10-06T16:34:25.502Z,20.4
2022-10-06T16:35:41.860Z,20.3
2022-10-06T16:36:57.883Z,20.3
2022-10-06T16:39:30.434Z,20.3
2022-10-06T16:40:46.614Z,20.3
2022-10-06T16:42:02.808Z,20.3
2022-10-06T16:43:19.001Z,20.3
2022-10-06T16:44:35.009Z,20.3
2022-10-06T16:45:51.369Z,20.3
2022-10-06T16:47:07.577Z,20.2
2022-10-06T16:48:22.769Z,20.2
2022-10-06T16:49:38.967Z,20.2
2022-10-06T16:50:55.153Z,20.2
2022-10-06T16:52:11.154Z,20.2
2022-10-06T16:53:27.522Z,20.2
2022-10-06T16:54:43.723Z,20.2
2022-10-06T16:55:59.898Z,20.2
2022-10-06T16:57:16.103Z,20.2
2022-10-06T16:58:32.275Z,20.2
2022-10-06T16:59:48.284Z,20.2
2022-10-06T17:01:04.484Z,20.2
2022-10-06T17:02:20.851Z,20.2
2022-10-06T17:03:36.856Z,20.2
2022-10-06T17:04:52.244Z,20.2
2022-10-06T17:06:08.441Z,20.2
2022-10-06T17:07:24.617Z,20.1
2022-10-06T17:08:40.802Z,20.1
2022-10-06T17:09:57.004Z,20.1